Time;durP1;ratioP1;P1;durP2;ratioP2;P2;SDS_P1;SDS_P2;PMS_P1;PMS_P2;Temp;Humidity;BMP_temperature;BMP_pressure;BME280_temperature;BME280_humidity;BME280_pressure;Samples;Min_cycle;Max_cycle;Signal;HPM_P1;HPM_P2
2023/03/17 00:02:46;;;;;;;5.57;3.50;;;6.70;99.90;;;;;;5029933;28;20282;-73
2023/03/17 00:05:34;;;;;;;4.25;3.00;;;6.70;99.90;;;;;;5048449;22;20661;-73
2023/03/17 00:08:22;;;;;;;7.23;3.57;;;6.60;99.90;;;;;;5003103;28;20692;-73
2023/03/17 00:11:11;;;;;;;8.85;3.45;;;6.70;99.90;;;;;;5010855;28;20902;-72
2023/03/17 00:13:57;;;;;;;7.35;3.22;;;6.60;99.90;;;;;;5006246;28;20232;-72
2023/03/17 00:16:46;;;;;;;4.00;3.13;;;6.60;99.90;;;;;;5014635;28;20342;-73
2023/03/17 00:19:35;;;;;;;4.70;3.30;;;6.60;99.90;;;;;;5007015;28;20215;-73
2023/03/17 00:22:21;;;;;;;4.40;2.95;;;6.60;99.90;;;;;;5011163;28;20216;-73
2023/03/17 00:25:19;;;;;;;6.00;3.40;;;6.60;99.90;;;;;;5003071;28;20208;-74
2023/03/17 00:28:17;;;;;;;8.70;3.78;;;6.60;99.90;;;;;;5003514;28;20454;-73
2023/03/17 00:31:12;;;;;;;8.43;3.80;;;6.70;99.90;;;;;;4999076;28;20236;-72
2023/03/17 00:33:57;;;;;;;6.70;3.23;;;6.70;99.90;;;;;;5005231;28;20482;-73
2023/03/17 00:36:47;;;;;;;6.30;3.80;;;6.80;99.90;;;;;;5008769;28;20479;-73
2023/03/17 00:39:32;;;;;;;6.30;3.10;;;6.80;99.90;;;;;;5003808;28;20451;-73
2023/03/17 00:42:18;;;;;;;4.70;3.17;;;6.80;99.90;;;;;;5000107;28;20516;-73
2023/03/17 00:45:04;;;;;;;4.32;3.03;;;6.80;99.90;;;;;;5011364;28;20204;-72
2023/03/17 00:47:51;;;;;;;7.65;3.08;;;6.80;99.90;;;;;;5007761;28;20357;-73
2023/03/17 00:50:37;;;;;;;5.72;3.40;;;6.90;99.90;;;;;;5006599;28;20529;-73
2023/03/17 00:53:24;;;;;;;5.68;3.83;;;6.80;99.90;;;;;;5002918;28;20367;-73
2023/03/17 00:56:14;;;;;;;7.50;3.77;;;6.70;99.90;;;;;;5001455;28;20235;-73
2023/03/17 00:59:01;;;;;;;7.40;3.83;;;6.70;99.90;;;;;;5004162;28;20456;-73
2023/03/17 01:01:47;;;;;;;6.53;3.43;;;6.60;99.90;;;;;;5006590;28;20452;-72
2023/03/17 01:04:34;;;;;;;4.50;3.10;;;6.60;99.90;;;;;;5010609;28;20446;-72
2023/03/17 01:07:19;;;;;;;4.35;2.92;;;6.70;99.90;;;;;;5002129;28;20567;-72
2023/03/17 01:10:13;;;;;;;5.33;3.47;;;6.70;99.90;;;;;;4999486;28;20275;-72
2023/03/17 01:12:59;;;;;;;6.90;3.25;;;6.80;99.90;;;;;;4996555;28;20499;-72
2023/03/17 01:15:46;;;;;;;8.48;3.45;;;6.80;99.90;;;;;;5013915;28;20356;-72
2023/03/17 01:18:32;;;;;;;6.47;3.47;;;6.80;99.90;;;;;;5006444;28;20587;-72
2023/03/17 01:21:18;;;;;;;5.97;2.87;;;6.90;99.90;;;;;;5000814;28;20489;-72
2023/03/17 01:24:04;;;;;;;7.23;3.50;;;6.90;99.90;;;;;;5003055;28;20421;-72
2023/03/17 01:26:51;;;;;;;9.20;3.25;;;6.90;99.90;;;;;;5007958;28;20465;-72
2023/03/17 01:29:37;;;;;;;6.78;3.55;;;6.90;99.90;;;;;;5003472;28;20212;-73
2023/03/17 01:32:23;;;;;;;3.67;2.90;;;6.90;99.90;;;;;;4997279;28;20796;-73
2023/03/17 01:35:09;;;;;;;6.10;3.00;;;6.80;99.90;;;;;;5004866;28;20442;-72
2023/03/17 01:37:56;;;;;;;4.50;3.20;;;6.80;99.90;;;;;;5010723;28;20963;-72
2023/03/17 01:40:45;;;;;;;7.50;3.17;;;6.80;99.90;;;;;;5005358;28;20455;-72
2023/03/17 01:43:31;;;;;;;4.45;2.78;;;6.70;99.90;;;;;;4997224;28;20446;-72
2023/03/17 01:46:23;;;;;;;5.87;3.10;;;6.80;99.90;;;;;;4993131;28;20360;-72
2023/03/17 01:49:15;;;;;;;6.70;3.57;;;6.80;99.90;;;;;;5004397;28;20448;-73
2023/03/17 01:52:06;;;;;;;7.20;2.80;;;6.70;99.90;;;;;;4998864;28;20536;-72
2023/03/17 01:54:56;;;;;;;3.73;3.00;;;6.70;99.90;;;;;;5002567;28;20447;-72
2023/03/17 01:57:49;;;;;;;5.50;3.47;;;6.70;99.90;;;;;;4998074;28;20455;-72
2023/03/17 02:00:36;;;;;;;6.40;3.30;;;6.70;99.90;;;;;;5004025;28;20454;-72
2023/03/17 02:03:23;;;;;;;5.10;3.13;;;6.70;99.90;;;;;;5000411;28;20981;-72
2023/03/17 02:06:10;;;;;;;4.30;2.70;;;6.60;99.90;;;;;;5006255;28;20490;-72
2023/03/17 02:08:56;;;;;;;6.10;3.40;;;6.60;99.90;;;;;;5012618;28;20451;-71
2023/03/17 02:11:42;;;;;;;4.93;2.80;;;6.60;99.90;;;;;;4998923;28;20515;-72
2023/03/17 02:14:28;;;;;;;5.00;3.40;;;6.50;99.90;;;;;;5003085;28;21071;-72
2023/03/17 02:17:15;;;;;;;6.57;3.17;;;6.40;99.90;;;;;;4998077;28;20478;-72
2023/03/17 02:20:14;;;;;;;4.10;3.00;;;6.40;99.90;;;;;;4999536;28;20542;-72
2023/03/17 02:23:03;;;;;;;4.75;3.00;;;6.40;99.90;;;;;;4993798;28;20448;-72
2023/03/17 02:25:50;;;;;;;5.13;2.87;;;6.40;99.90;;;;;;4994363;28;20232;-72
2023/03/17 02:28:36;;;;;;;14.48;3.88;;;6.40;99.90;;;;;;5002441;28;20599;-72
2023/03/17 02:31:25;;;;;;;4.25;2.90;;;6.30;99.90;;;;;;4996813;28;20225;-72
2023/03/17 02:34:11;;;;;;;3.97;2.90;;;6.30;99.90;;;;;;5009207;28;20291;-72
2023/03/17 02:36:57;;;;;;;6.57;3.10;;;6.30;99.90;;;;;;4998511;28;20234;-72
2023/03/17 02:39:44;;;;;;;4.47;2.60;;;6.40;99.90;;;;;;4997009;28;20218;-73
2023/03/17 02:42:30;;;;;;;4.20;3.03;;;6.30;99.90;;;;;;4994287;28;20502;-73
2023/03/17 02:45:16;;;;;;;4.22;3.00;;;6.30;99.90;;;;;;4998430;28;20964;-72
2023/03/17 02:48:02;;;;;;;9.73;3.17;;;6.30;99.90;;;;;;4997381;28;21298;-72
2023/03/17 02:50:48;;;;;;;3.23;2.70;;;6.30;99.90;;;;;;5003003;28;20452;-72
2023/03/17 02:53:34;;;;;;;6.83;3.53;;;6.30;99.90;;;;;;5001066;28;20519;-72
2023/03/17 02:56:21;;;;;;;2.95;2.33;;;6.30;99.90;;;;;;5001149;28;20470;-73
2023/03/17 02:59:07;;;;;;;4.82;2.90;;;6.20;99.90;;;;;;4999060;28;20210;-72
2023/03/17 03:01:54;;;;;;;6.63;2.88;;;6.10;99.90;;;;;;4999328;28;20578;-72
2023/03/17 03:04:40;;;;;;;3.78;2.55;;;6.10;99.90;;;;;;5003751;28;20203;-72
2023/03/17 03:07:26;;;;;;;3.70;2.50;;;5.90;99.90;;;;;;4999855;28;20313;-72
2023/03/17 03:10:12;;;;;;;5.17;3.20;;;5.90;99.90;;;;;;4994979;28;20972;-72
2023/03/17 03:12:59;;;;;;;4.25;3.38;;;5.90;99.90;;;;;;4999950;28;20599;-72
2023/03/17 03:15:44;;;;;;;4.75;3.40;;;5.90;99.90;;;;;;5003060;28;20224;-72
2023/03/17 03:18:30;;;;;;;4.72;2.78;;;5.80;99.90;;;;;;5004161;28;20232;-72
2023/03/17 03:21:15;;;;;;;4.10;2.97;;;5.70;99.90;;;;;;4999885;28;20698;-72
2023/03/17 03:24:01;;;;;;;11.23;2.83;;;5.60;99.90;;;;;;5000854;28;20305;-72
2023/03/17 03:26:47;;;;;;;4.35;2.83;;;5.50;99.90;;;;;;5001462;28;20232;-72
2023/03/17 03:29:33;;;;;;;4.88;3.30;;;5.40;99.90;;;;;;4995542;28;20689;-72
2023/03/17 03:32:19;;;;;;;12.57;2.90;;;5.40;99.90;;;;;;5003877;28;20595;-72
2023/03/17 03:35:05;;;;;;;9.05;2.72;;;5.40;99.90;;;;;;4996463;28;20598;-72
2023/03/17 03:37:51;;;;;;;4.60;2.85;;;5.40;99.90;;;;;;5002511;28;20211;-71
2023/03/17 03:40:37;;;;;;;3.92;2.83;;;5.20;99.90;;;;;;4998719;28;20222;-72
2023/03/17 03:43:23;;;;;;;5.15;2.47;;;5.20;99.90;;;;;;5005330;28;20196;-72
2023/03/17 03:46:10;;;;;;;3.22;2.55;;;5.10;99.90;;;;;;4997767;28;20377;-72
2023/03/17 03:48:56;;;;;;;4.65;2.75;;;5.00;99.90;;;;;;4995961;28;20197;-72
2023/03/17 03:51:41;;;;;;;8.32;2.88;;;5.00;99.90;;;;;;5005264;28;20199;-72
2023/03/17 03:54:27;;;;;;;4.35;2.85;;;5.10;99.90;;;;;;5006454;28;20236;-72
2023/03/17 03:57:14;;;;;;;6.07;2.88;;;5.10;99.90;;;;;;5010390;28;20228;-72
2023/03/17 04:00:00;;;;;;;3.80;3.05;;;5.10;99.90;;;;;;4998198;28;20722;-72
2023/03/17 04:02:47;;;;;;;7.22;2.58;;;5.10;99.90;;;;;;5008449;28;20532;-72
2023/03/17 04:05:33;;;;;;;4.50;2.95;;;5.00;99.90;;;;;;4999577;28;20278;-72
2023/03/17 04:08:19;;;;;;;4.30;3.03;;;5.00;99.90;;;;;;5002600;28;20219;-72
2023/03/17 04:11:05;;;;;;;5.75;2.80;;;5.00;99.90;;;;;;5002226;28;20592;-71
2023/03/17 04:13:50;;;;;;;4.43;2.90;;;4.90;99.90;;;;;;5013191;28;20655;-72
2023/03/17 04:16:36;;;;;;;10.93;3.72;;;4.80;99.90;;;;;;5002977;28;20630;-72
2023/03/17 04:19:23;;;;;;;6.15;2.70;;;4.80;99.90;;;;;;5003628;28;20213;-72
2023/03/17 04:22:11;;;;;;;7.72;3.08;;;4.80;99.90;;;;;;4997016;28;20692;-72
2023/03/17 04:24:56;;;;;;;4.38;2.97;;;4.70;99.90;;;;;;5005271;28;20879;-72
2023/03/17 04:27:43;;;;;;;6.13;2.90;;;4.60;99.90;;;;;;5001504;28;20208;-72
2023/03/17 04:30:28;;;;;;;3.63;2.67;;;4.60;99.90;;;;;;4998188;28;20350;-72
2023/03/17 04:33:14;;;;;;;6.13;3.00;;;4.60;99.90;;;;;;5011251;28;20275;-72
2023/03/17 04:36:02;;;;;;;3.38;2.80;;;4.60;99.90;;;;;;4999743;28;20224;-72
2023/03/17 04:38:49;;;;;;;3.67;2.92;;;4.50;99.90;;;;;;4999012;28;20813;-72
2023/03/17 04:41:35;;;;;;;9.40;3.55;;;4.50;99.90;;;;;;5008151;28;20201;-72
2023/03/17 04:44:20;;;;;;;3.03;2.47;;;4.40;99.90;;;;;;5005698;28;20274;-72
2023/03/17 04:47:06;;;;;;;4.88;3.00;;;4.20;99.90;;;;;;5003550;28;20274;-72
2023/03/17 04:49:52;;;;;;;5.88;3.78;;;4.20;99.90;;;;;;5000471;28;20272;-72
2023/03/17 04:52:39;;;;;;;4.28;2.70;;;4.20;99.90;;;;;;5006017;28;20204;-71
2023/03/17 04:55:24;;;;;;;5.63;3.00;;;4.10;99.90;;;;;;5005678;28;20717;-72
2023/03/17 04:58:10;;;;;;;6.03;2.92;;;4.10;99.90;;;;;;5006011;28;20271;-72
2023/03/17 05:00:56;;;;;;;3.17;2.40;;;4.10;99.90;;;;;;5001369;28;20212;-72
2023/03/17 05:03:42;;;;;;;4.00;2.80;;;4.10;99.90;;;;;;5004123;28;20204;-72
2023/03/17 05:06:28;;;;;;;6.55;3.33;;;4.10;99.90;;;;;;5000171;28;20240;-72
2023/03/17 05:09:15;;;;;;;4.60;3.10;;;4.20;99.90;;;;;;4997216;28;20532;-71
2023/03/17 05:12:00;;;;;;;6.22;3.20;;;4.10;99.90;;;;;;5006332;28;20286;-72
2023/03/17 05:14:46;;;;;;;3.60;2.50;;;4.00;99.90;;;;;;4998080;28;20266;-72
2023/03/17 05:17:32;;;;;;;4.88;2.47;;;4.00;99.90;;;;;;5002887;28;20556;-72
2023/03/17 05:20:18;;;;;;;4.00;3.13;;;3.90;99.90;;;;;;5008822;28;20204;-72
2023/03/17 05:23:04;;;;;;;4.03;2.92;;;3.80;99.90;;;;;;5000727;28;20887;-72
2023/03/17 05:25:52;;;;;;;5.32;3.28;;;3.70;99.90;;;;;;4996615;28;20220;-72
2023/03/17 05:28:37;;;;;;;4.63;3.10;;;3.70;99.90;;;;;;4999082;28;20208;-72
2023/03/17 05:31:23;;;;;;;4.40;3.40;;;3.60;99.90;;;;;;5004364;28;20210;-71
2023/03/17 05:34:09;;;;;;;5.35;3.67;;;3.50;99.90;;;;;;5000815;28;20232;-72
2023/03/17 05:36:55;;;;;;;4.18;3.00;;;3.50;99.90;;;;;;5009821;28;20222;-72
2023/03/17 05:39:40;;;;;;;3.90;3.13;;;3.60;99.90;;;;;;4993112;28;20242;-72
2023/03/17 05:42:27;;;;;;;6.97;3.78;;;3.70;99.90;;;;;;5009751;28;20839;-72
2023/03/17 05:45:13;;;;;;;6.63;3.72;;;3.70;99.90;;;;;;5001912;28;20201;-72
2023/03/17 05:47:59;;;;;;;7.65;4.00;;;3.70;99.90;;;;;;4995594;28;20216;-72
2023/03/17 05:50:44;;;;;;;5.63;3.20;;;3.80;99.90;;;;;;5001739;28;20215;-72
2023/03/17 05:53:30;;;;;;;5.05;3.75;;;3.80;99.90;;;;;;4996174;28;20212;-72
2023/03/17 05:56:16;;;;;;;5.13;3.53;;;3.70;99.90;;;;;;5000790;28;20224;-72
2023/03/17 05:59:03;;;;;;;3.55;3.10;;;3.70;99.90;;;;;;5000653;28;20697;-72
2023/03/17 06:01:48;;;;;;;8.93;3.63;;;3.60;99.90;;;;;;5006672;28;20211;-72
2023/03/17 06:04:34;;;;;;;5.38;3.50;;;3.70;99.90;;;;;;5005963;28;20242;-72
2023/03/17 06:07:20;;;;;;;5.63;3.85;;;3.70;99.90;;;;;;5022244;22;20286;-74
2023/03/17 06:10:06;;;;;;;4.57;4.13;;;3.60;99.90;;;;;;5006904;28;20244;-72
2023/03/17 06:12:52;;;;;;;4.93;4.10;;;3.60;99.90;;;;;;5015918;28;20209;-72
2023/03/17 06:15:40;;;;;;;5.13;3.30;;;3.70;99.90;;;;;;5014753;28;20240;-72
2023/03/17 06:18:26;;;;;;;11.32;3.58;;;3.70;99.90;;;;;;5002919;28;20208;-72
2023/03/17 06:21:11;;;;;;;6.28;5.63;;;3.80;99.90;;;;;;5003781;28;20576;-72
2023/03/17 06:23:57;;;;;;;6.40;3.83;;;3.80;99.90;;;;;;5015090;28;20212;-72
2023/03/17 06:26:43;;;;;;;3.55;3.13;;;3.90;99.90;;;;;;5000850;28;20677;-72
2023/03/17 06:29:29;;;;;;;3.85;3.13;;;4.00;99.90;;;;;;5012216;28;20211;-71
2023/03/17 06:32:16;;;;;;;7.07;3.80;;;4.10;99.90;;;;;;5007401;28;20568;-72
2023/03/17 06:35:04;;;;;;;4.93;3.65;;;4.20;99.90;;;;;;5005481;28;20233;-71
2023/03/17 06:37:49;;;;;;;5.10;3.47;;;4.30;99.90;;;;;;4996873;28;20816;-71
2023/03/17 06:40:35;;;;;;;4.30;3.40;;;4.30;99.90;;;;;;5008059;28;20284;-72
2023/03/17 06:43:23;;;;;;;8.32;3.95;;;4.40;99.90;;;;;;5016704;28;20208;-71
2023/03/17 06:46:09;;;;;;;6.35;3.90;;;4.40;99.90;;;;;;5022006;28;20249;-71
2023/03/17 06:48:56;;;;;;;7.30;5.45;;;4.50;99.90;;;;;;5005938;28;20716;-72
2023/03/17 06:51:41;;;;;;;6.45;5.35;;;4.50;99.90;;;;;;5010509;28;20206;-71
2023/03/17 06:54:27;;;;;;;9.25;4.60;;;4.60;99.90;;;;;;5009659;28;20306;-71
2023/03/17 06:57:13;;;;;;;4.70;4.00;;;4.60;99.90;;;;;;5000936;28;20287;-71
2023/03/17 06:59:59;;;;;;;6.93;4.47;;;4.70;99.90;;;;;;5008945;28;20676;-72
2023/03/17 07:02:46;;;;;;;11.07;4.45;;;4.70;99.90;;;;;;5004235;28;20207;-71
2023/03/17 07:05:33;;;;;;;7.55;5.75;;;4.80;99.90;;;;;;5006779;28;20327;-72
2023/03/17 07:08:18;;;;;;;8.70;5.95;;;5.00;99.90;;;;;;4999240;28;20876;-71
2023/03/17 07:11:04;;;;;;;10.50;5.43;;;5.10;99.90;;;;;;5005204;28;20204;-71
2023/03/17 07:13:50;;;;;;;11.50;5.03;;;5.20;99.90;;;;;;5016999;28;20195;-71
2023/03/17 07:16:37;;;;;;;7.55;5.40;;;5.20;99.90;;;;;;5010887;28;20251;-71
2023/03/17 07:19:23;;;;;;;6.68;5.10;;;5.20;99.90;;;;;;5010431;28;20307;-71
2023/03/17 07:22:11;;;;;;;10.10;5.60;;;5.30;99.90;;;;;;5011225;28;20733;-72
2023/03/17 07:24:57;;;;;;;10.40;5.72;;;5.50;99.90;;;;;;5014413;28;20270;-72
2023/03/17 07:27:43;;;;;;;8.40;5.20;;;5.60;99.90;;;;;;5009765;28;20332;-72
2023/03/17 07:30:28;;;;;;;9.20;5.53;;;5.80;99.90;;;;;;5018678;28;20213;-72
2023/03/17 07:33:15;;;;;;;5.53;4.60;;;5.90;99.90;;;;;;5013394;28;20580;-72
2023/03/17 07:36:01;;;;;;;8.10;4.72;;;6.10;99.90;;;;;;5010052;28;20304;-72
2023/03/17 07:38:48;;;;;;;8.90;5.20;;;6.30;99.90;;;;;;5017173;28;20229;-72
2023/03/17 07:41:35;;;;;;;7.95;5.68;;;6.50;99.90;;;;;;5022698;28;20529;-72
2023/03/17 07:44:21;;;;;;;12.67;7.00;;;6.70;99.90;;;;;;5003184;28;20431;-72
2023/03/17 07:47:07;;;;;;;8.43;5.43;;;6.90;99.90;;;;;;5004841;28;20472;-72
2023/03/17 07:49:53;;;;;;;12.02;6.10;;;7.10;99.90;;;;;;5016182;28;20454;-72
2023/03/17 07:52:39;;;;;;;7.50;5.80;;;7.30;99.90;;;;;;5025066;28;20279;-72
2023/03/17 07:55:26;;;;;;;8.70;5.57;;;7.40;99.90;;;;;;5014479;28;20566;-72
2023/03/17 07:58:12;;;;;;;7.17;5.40;;;7.50;99.90;;;;;;5005636;28;20579;-72
2023/03/17 08:00:58;;;;;;;7.30;5.23;;;7.60;99.90;;;;;;5010004;28;20449;-72
2023/03/17 08:03:43;;;;;;;8.33;5.13;;;7.70;99.90;;;;;;5011306;28;20447;-72
2023/03/17 08:06:30;;;;;;;14.93;5.23;;;8.00;99.90;;;;;;5008098;28;20827;-72
2023/03/17 08:09:15;;;;;;;9.00;5.33;;;8.10;99.90;;;;;;4997606;28;20591;-72
2023/03/17 08:12:03;;;;;;;8.47;6.30;;;8.30;99.90;;;;;;5017174;28;20433;-72
2023/03/17 08:14:49;;;;;;;5.77;4.20;;;8.50;99.90;;;;;;5021898;28;20828;-73
2023/03/17 08:17:36;;;;;;;6.33;4.50;;;8.60;99.90;;;;;;5008022;28;20471;-72
2023/03/17 08:20:21;;;;;;;5.77;4.17;;;8.70;99.90;;;;;;5004609;28;20470;-72
2023/03/17 08:23:07;;;;;;;9.40;4.37;;;8.80;99.90;;;;;;5009111;28;20558;-72
2023/03/17 08:25:57;;;;;;;10.53;3.83;;;8.90;99.90;;;;;;4995597;28;20607;-72
2023/03/17 08:28:44;;;;;;;5.03;3.90;;;9.10;99.90;;;;;;4998604;28;20495;-72
2023/03/17 08:31:30;;;;;;;7.07;3.83;;;9.20;99.90;;;;;;5004495;28;20522;-72
2023/03/17 08:34:15;;;;;;;5.10;3.30;;;9.30;99.90;;;;;;5011907;28;20463;-72
2023/03/17 08:37:02;;;;;;;10.70;4.60;;;9.50;99.90;;;;;;5006553;28;20646;-72
2023/03/17 08:39:48;;;;;;;7.13;4.10;;;9.70;97.40;;;;;;5003739;28;21226;-72
2023/03/17 08:42:34;;;;;;;9.80;3.60;;;9.90;93.70;;;;;;5006409;28;20460;-72
2023/03/17 08:45:21;;;;;;;5.20;3.20;;;10.10;90.70;;;;;;5003745;28;20457;-72
2023/03/17 08:48:07;;;;;;;7.63;3.43;;;10.30;80.50;;;;;;4998987;28;20469;-72
2023/03/17 08:50:52;;;;;;;12.23;3.50;;;10.60;80.20;;;;;;5000669;28;20622;-72
2023/03/17 08:53:38;;;;;;;5.57;3.10;;;10.70;69.90;;;;;;5009380;28;20523;-72
2023/03/17 08:56:24;;;;;;;4.33;3.10;;;10.90;68.50;;;;;;5010643;28;20560;-72
2023/03/17 08:59:10;;;;;;;6.90;3.03;;;11.10;64.70;;;;;;5000852;28;20460;-72
2023/03/17 09:01:57;;;;;;;3.97;2.80;;;11.20;64.20;;;;;;5010064;28;20495;-72
2023/03/17 09:04:43;;;;;;;4.20;2.87;;;11.50;68.90;;;;;;5008548;28;20428;-73
2023/03/17 09:07:28;;;;;;;5.80;3.20;;;11.60;68.70;;;;;;5001825;28;20991;-72
2023/03/17 09:10:15;;;;;;;9.60;3.17;;;11.70;67.80;;;;;;5019988;28;20471;-72
2023/03/17 09:13:02;;;;;;;11.43;3.30;;;11.80;65.50;;;;;;5020876;28;20964;-72
2023/03/17 09:15:48;;;;;;;6.00;3.10;;;12.00;59.40;;;;;;5011426;28;20826;-72
2023/03/17 09:18:36;;;;;;;6.07;3.10;;;12.10;56.20;;;;;;5004352;28;20587;-72
2023/03/17 09:21:22;;;;;;;4.93;3.00;;;12.30;55.30;;;;;;5007549;28;20450;-72
2023/03/17 09:24:08;;;;;;;5.70;3.80;;;12.50;51.50;;;;;;5009893;28;20551;-72
2023/03/17 09:26:54;;;;;;;5.70;3.13;;;12.70;53.20;;;;;;5003377;28;20456;-72
2023/03/17 09:29:41;;;;;;;4.40;2.93;;;12.90;52.40;;;;;;4999937;28;20492;-71
2023/03/17 09:32:26;;;;;;;6.33;2.90;;;13.10;44.50;;;;;;5001498;28;20465;-72
2023/03/17 09:35:14;;;;;;;6.43;3.57;;;13.20;46.10;;;;;;5015752;28;20479;-72
2023/03/17 09:37:59;;;;;;;4.87;2.77;;;13.30;38.70;;;;;;5004772;28;20481;-72
2023/03/17 09:40:48;;;;;;;7.93;3.60;;;13.40;40.00;;;;;;5011211;28;20403;-72
2023/03/17 09:43:44;;;;;;;6.33;3.20;;;13.50;39.70;;;;;;5003849;28;20542;-73
2023/03/17 09:46:37;;;;;;;6.07;3.30;;;13.60;35.70;;;;;;5016034;28;20439;-72
2023/03/17 09:49:29;;;;;;;6.00;3.00;;;13.80;37.90;;;;;;5008626;28;20444;-72
2023/03/17 09:52:19;;;;;;;8.73;3.43;;;13.90;35.00;;;;;;4999945;28;20455;-72
2023/03/17 09:55:11;;;;;;;5.97;3.93;;;13.90;35.60;;;;;;4999676;28;21344;-72
2023/03/17 09:57:59;;;;;;;4.00;2.77;;;14.00;37.90;;;;;;4999013;28;20448;-72
2023/03/17 10:00:45;;;;;;;4.40;2.97;;;14.20;36.10;;;;;;5008165;28;20448;-72
2023/03/17 10:03:31;;;;;;;7.87;2.97;;;14.30;33.50;;;;;;5006944;28;20450;-72
2023/03/17 10:06:42;;;;;;;4.20;2.50;;;14.50;31.80;;;;;;5013455;28;21014;-72
2023/03/17 10:09:34;;;;;;;3.80;2.53;;;14.60;31.80;;;;;;4999527;28;20456;-72
2023/03/17 10:12:27;;;;;;;7.20;3.00;;;14.80;34.00;;;;;;5007150;28;20454;-72
2023/03/17 10:15:20;;;;;;;5.43;3.23;;;14.90;30.00;;;;;;5003634;28;20425;-72
2023/03/17 10:18:10;;;;;;;9.10;3.00;;;15.00;32.40;;;;;;5005991;28;20828;-72
2023/03/17 10:20:59;;;;;;;3.63;2.53;;;15.10;32.00;;;;;;5007153;28;20972;-72
2023/03/17 10:23:46;;;;;;;5.33;2.87;;;15.20;31.60;;;;;;5009804;28;20448;-72
2023/03/17 10:26:38;;;;;;;7.10;3.27;;;15.30;31.10;;;;;;5008801;28;21002;-72
2023/03/17 10:29:24;;;;;;;4.30;2.50;;;15.50;30.90;;;;;;5007596;28;20820;-72
2023/03/17 10:32:12;;;;;;;4.80;2.63;;;15.60;33.20;;;;;;5005378;28;20501;-72
2023/03/17 10:34:58;;;;;;;4.17;2.60;;;15.60;31.30;;;;;;5011318;28;20457;-72
2023/03/17 10:37:44;;;;;;;5.13;2.40;;;15.70;30.00;;;;;;5009058;28;20426;-72
2023/03/17 10:40:31;;;;;;;3.60;2.30;;;15.80;31.90;;;;;;4999298;28;22774;-72
2023/03/17 10:43:20;;;;;;;4.77;2.67;;;16.00;30.20;;;;;;5009166;28;20969;-72
2023/03/17 10:46:15;;;;;;;6.53;2.47;;;16.10;30.40;;;;;;5005118;28;20457;-72
2023/03/17 10:49:08;;;;;;;4.40;2.77;;;16.30;28.50;;;;;;5011878;28;20455;-72
2023/03/17 10:51:54;;;;;;;3.57;2.20;;;16.50;26.90;;;;;;5001791;28;20451;-72
2023/03/17 10:54:40;;;;;;;5.00;2.53;;;16.60;27.00;;;;;;4998856;28;20440;-72
2023/03/17 10:57:26;;;;;;;7.07;3.30;;;16.70;26.80;;;;;;5006674;28;20597;-72
2023/03/17 11:00:18;;;;;;;5.23;2.60;;;16.80;27.00;;;;;;5002789;28;20428;-72
2023/03/17 11:03:11;;;;;;;3.17;1.77;;;16.80;27.90;;;;;;5002858;28;21204;-72
2023/03/17 11:06:02;;;;;;;3.60;2.37;;;16.90;28.50;;;;;;5000961;28;20564;-71
2023/03/17 11:08:52;;;;;;;4.63;2.67;;;17.00;26.10;;;;;;5002283;28;20593;-72
2023/03/17 11:11:44;;;;;;;3.33;2.10;;;17.00;26.10;;;;;;5001739;28;20967;-72
2023/03/17 11:14:30;;;;;;;3.90;2.47;;;17.10;27.40;;;;;;5007238;28;20421;-72
2023/03/17 11:17:24;;;;;;;3.70;2.40;;;17.20;27.60;;;;;;5011274;28;20836;-72
2023/03/17 11:20:30;;;;;;;4.27;2.40;;;17.20;24.70;;;;;;5008022;28;20446;-73
2023/03/17 11:23:33;;;;;;;6.33;2.63;;;17.10;26.00;;;;;;5008322;28;21064;-72
2023/03/17 11:26:52;;;;;;;8.43;4.13;;;17.00;25.60;;;;;;4998527;28;20983;-73
2023/03/17 11:30:09;;;;;;;6.47;4.80;;;17.10;28.50;;;;;;4997727;28;20590;-73
2023/03/17 11:33:05;;;;;;;7.70;5.63;;;17.20;28.60;;;;;;5002902;28;20433;-73
2023/03/17 11:35:57;;;;;;;6.70;4.90;;;17.10;28.00;;;;;;5002093;28;20522;-72
2023/03/17 11:38:55;;;;;;;8.07;5.00;;;17.10;28.80;;;;;;5008271;28;20454;-72
2023/03/17 11:41:55;;;;;;;9.30;4.83;;;17.10;29.60;;;;;;5002853;28;20456;-71
2023/03/17 11:45:08;;;;;;;12.50;5.60;;;17.20;30.00;;;;;;5002487;28;20458;-71
2023/03/17 11:48:12;;;;;;;8.80;5.60;;;17.30;29.40;;;;;;5001645;28;20576;-72
2023/03/17 11:51:03;;;;;;;7.00;5.10;;;17.40;28.40;;;;;;4998490;28;20538;-72
2023/03/17 11:54:03;;;;;;;6.97;4.50;;;17.40;28.50;;;;;;5004998;28;20489;-72
2023/03/17 11:56:54;;;;;;;10.47;4.87;;;17.40;28.40;;;;;;4996749;28;20465;-72
2023/03/17 11:59:46;;;;;;;8.23;4.57;;;17.40;28.80;;;;;;5002930;28;20595;-73
2023/03/17 12:02:41;;;;;;;6.23;4.43;;;17.40;28.20;;;;;;5003894;28;20825;-72
2023/03/17 12:05:30;;;;;;;8.67;4.60;;;17.30;28.40;;;;;;5001749;28;20451;-72
2023/03/17 12:08:24;;;;;;;8.47;4.87;;;17.40;28.90;;;;;;5036243;23;20534;-71
2023/03/17 12:11:14;;;;;;;8.70;4.93;;;17.50;28.90;;;;;;5027203;28;20477;-73
2023/03/17 12:14:04;;;;;;;6.80;4.77;;;17.50;27.50;;;;;;5029108;28;20432;-72
2023/03/17 12:16:54;;;;;;;11.23;5.43;;;17.50;28.10;;;;;;5022689;28;21027;-72
2023/03/17 12:19:45;;;;;;;7.10;4.40;;;17.70;28.40;;;;;;5023491;28;20702;-72
2023/03/17 12:22:39;;;;;;;9.07;4.53;;;17.70;27.10;;;;;;5031624;28;20598;-72
2023/03/17 12:25:31;;;;;;;13.63;5.80;;;17.80;27.60;;;;;;5032903;28;20503;-72
2023/03/17 12:28:21;;;;;;;7.73;4.37;;;17.80;27.30;;;;;;5019743;28;21153;-72
2023/03/17 12:31:11;;;;;;;8.00;4.73;;;17.80;26.60;;;;;;5029175;28;20565;-72
2023/03/17 12:34:05;;;;;;;6.93;5.07;;;17.70;27.30;;;;;;5030732;28;20521;-72
2023/03/17 12:36:52;;;;;;;8.23;4.40;;;17.60;27.10;;;;;;5025314;28;20456;-72
2023/03/17 12:39:44;;;;;;;7.63;5.40;;;17.50;27.20;;;;;;5018559;28;20418;-71
2023/03/17 12:42:45;;;;;;;5.80;4.10;;;17.40;27.50;;;;;;5024444;28;20426;-72
2023/03/17 12:45:44;;;;;;;8.00;4.80;;;17.30;28.40;;;;;;5023555;28;20460;-72
2023/03/17 12:48:59;;;;;;;7.03;4.13;;;17.20;28.50;;;;;;5031638;28;20461;-72
2023/03/17 12:52:01;;;;;;;8.40;4.83;;;17.10;28.60;;;;;;5010265;28;20555;-72
2023/03/17 12:54:51;;;;;;;8.67;4.43;;;16.90;29.10;;;;;;5022935;28;20516;-72
2023/03/17 12:57:40;;;;;;;8.73;4.40;;;16.80;28.10;;;;;;5026646;28;20436;-73
2023/03/17 13:00:30;;;;;;;7.37;5.30;;;16.70;28.30;;;;;;5022249;28;20448;-72
2023/03/17 13:03:22;;;;;;;10.37;5.17;;;16.50;27.70;;;;;;5026158;28;20425;-72
2023/03/17 13:06:17;;;;;;;9.27;4.97;;;16.50;28.90;;;;;;5022498;28;20448;-72
2023/03/17 13:09:42;;;;;;;26.47;4.47;;;16.40;30.00;;;;;;5025401;28;20428;-72
2023/03/17 13:13:00;;;;;;;12.60;4.60;;;16.50;31.80;;;;;;5026199;28;20473;-72
2023/03/17 13:15:54;;;;;;;8.00;5.00;;;16.50;31.50;;;;;;5021669;28;20421;-72
2023/03/17 13:18:49;;;;;;;9.93;4.70;;;16.50;31.60;;;;;;5028406;28;20417;-73
2023/03/17 13:21:35;;;;;;;8.10;4.57;;;16.50;31.70;;;;;;5025254;28;20974;-72
2023/03/17 13:24:49;;;;;;;12.17;4.30;;;16.60;31.30;;;;;;5027385;28;20444;-72
2023/03/17 13:27:44;;;;;;;7.10;3.77;;;16.60;30.70;;;;;;5023086;28;20599;-72
2023/03/17 13:31:07;;;;;;;8.23;4.23;;;16.60;29.70;;;;;;5025042;28;20564;-72
2023/03/17 13:33:55;;;;;;;6.10;3.90;;;16.60;30.80;;;;;;5022204;28;20420;-72
2023/03/17 13:36:56;;;;;;;6.93;4.83;;;16.50;30.00;;;;;;5019593;28;20492;-72
2023/03/17 13:40:06;;;;;;;9.27;4.20;;;16.50;30.00;;;;;;5024773;28;20505;-73
2023/03/17 13:43:09;;;;;;;11.00;4.10;;;16.40;31.30;;;;;;5024031;28;20460;-72
2023/03/17 13:46:16;;;;;;;10.07;4.70;;;16.40;31.40;;;;;;5024322;28;20474;-73
2023/03/17 13:49:04;;;;;;;7.27;3.90;;;16.40;31.60;;;;;;5023603;28;20468;-74
2023/03/17 13:51:55;;;;;;;8.00;4.43;;;16.40;31.70;;;;;;5026183;28;20516;-72
2023/03/17 13:54:46;;;;;;;6.53;3.87;;;16.40;34.10;;;;;;5019927;28;20447;-72
2023/03/17 13:57:36;;;;;;;8.13;4.07;;;16.30;33.50;;;;;;5018929;28;20606;-73
2023/03/17 14:00:24;;;;;;;9.40;3.90;;;16.30;33.00;;;;;;5021605;28;20441;-72
2023/03/17 14:03:17;;;;;;;7.17;3.70;;;16.30;33.40;;;;;;5024982;28;20960;-72
2023/03/17 14:06:05;;;;;;;7.20;4.33;;;16.30;32.20;;;;;;5023975;28;20978;-72
2023/03/17 14:08:55;;;;;;;6.20;4.63;;;16.30;31.30;;;;;;5023101;28;20741;-72
2023/03/17 14:11:45;;;;;;;6.60;3.87;;;16.30;32.30;;;;;;5024669;28;20451;-72
2023/03/17 14:14:40;;;;;;;6.93;3.77;;;16.30;33.70;;;;;;5021706;28;20479;-72
2023/03/17 14:17:29;;;;;;;6.47;4.43;;;16.30;34.50;;;;;;5025098;28;20541;-72
2023/03/17 14:20:24;;;;;;;9.50;4.40;;;16.30;36.20;;;;;;5021242;28;20459;-73
2023/03/17 14:23:11;;;;;;;7.53;4.50;;;16.20;33.80;;;;;;5023941;28;20944;-72
2023/03/17 14:25:58;;;;;;;7.70;4.63;;;16.10;35.40;;;;;;5025151;28;20890;-72
2023/03/17 14:28:44;;;;;;;10.17;4.77;;;16.10;35.40;;;;;;5028520;28;20422;-72
2023/03/17 14:31:30;;;;;;;5.90;4.40;;;16.10;37.20;;;;;;5018321;28;21005;-71
2023/03/17 14:34:16;;;;;;;8.20;3.93;;;16.00;36.40;;;;;;5020592;28;20465;-70
2023/03/17 14:37:04;;;;;;;8.60;4.43;;;16.00;37.00;;;;;;5019782;28;20874;-71
2023/03/17 14:39:52;;;;;;;7.03;4.80;;;16.00;36.80;;;;;;5018034;28;20776;-71
2023/03/17 14:42:38;;;;;;;7.00;4.47;;;16.00;37.20;;;;;;5010209;28;20941;-71
2023/03/17 14:45:31;;;;;;;10.40;4.27;;;16.00;38.90;;;;;;5015558;28;20558;-71
2023/03/17 14:48:25;;;;;;;10.00;3.97;;;16.00;37.60;;;;;;5015308;28;20508;-71